Time;durP1;ratioP1;P1;durP2;ratioP2;P2;SDS_P1;SDS_P2;PMS_P1;PMS_P2;Temp;Humidity;BMP_temperature;BMP_pressure;BME280_temperature;BME280_humidity;BME280_pressure;Samples;Min_cycle;Max_cycle;Signal;HPM_P1;HPM_P2
2022/11/18 00:01:50;;;;;;;22.58;11.93;;;;;;;;;;5054120;28;20049;-86
2022/11/18 00:04:17;;;;;;;36.05;15.90;;;;;;;;;;5055016;28;20048;-86
2022/11/18 00:06:44;;;;;;;21.55;12.15;;;;;;;;;;5054156;28;20051;-86
2022/11/18 00:09:12;;;;;;;22.77;11.85;;;;;;;;;;5053938;28;20061;-87
2022/11/18 00:14:26;;;;;;;30.00;14.20;;;;;;;;;;5054095;28;20145;-86
2022/11/18 00:17:04;;;;;;;15.82;10.95;;;;;;;;;;5053849;28;20076;-86
2022/11/18 00:19:32;;;;;;;27.27;14.90;;;;;;;;;;5054568;28;20064;-86
2022/11/18 00:22:00;;;;;;;18.40;12.35;;;;;;;;;;5053889;28;20403;-86
2022/11/18 00:24:27;;;;;;;20.75;11.95;;;;;;;;;;5053360;28;20055;-87
2022/11/18 00:26:55;;;;;;;17.83;10.52;;;;;;;;;;5053029;28;20041;-86
2022/11/18 00:29:23;;;;;;;17.45;11.13;;;;;;;;;;5053972;28;20049;-86
2022/11/18 00:31:50;;;;;;;17.88;10.95;;;;;;;;;;5053792;28;20135;-87
2022/11/18 00:34:18;;;;;;;17.50;11.65;;;;;;;;;;5053403;28;20045;-87
2022/11/18 00:36:45;;;;;;;24.15;12.25;;;;;;;;;;5063993;28;20112;-87
2022/11/18 00:39:14;;;;;;;13.90;9.68;;;;;;;;;;5053376;28;20045;-87
2022/11/18 00:44:27;;;;;;;15.15;10.65;;;;;;;;;;5054750;28;20136;-87
2022/11/18 00:46:57;;;;;;;12.82;10.05;;;;;;;;;;5053692;28;20044;-86
2022/11/18 00:49:24;;;;;;;11.02;8.40;;;;;;;;;;5054251;28;20075;-86
2022/11/18 00:51:52;;;;;;;10.00;8.00;;;;;;;;;;5057869;28;20120;-87
2022/11/18 00:54:19;;;;;;;10.48;7.72;;;;;;;;;;5067642;28;20053;-87
2022/11/18 00:56:46;;;;;;;10.15;7.03;;;;;;;;;;5060365;28;20507;-87
2022/11/18 00:59:13;;;;;;;8.75;7.50;;;;;;;;;;5053489;28;20053;-87
2022/11/18 01:01:41;;;;;;;8.52;6.25;;;;;;;;;;5053488;28;20136;-87
2022/11/18 01:04:08;;;;;;;9.65;6.72;;;;;;;;;;5053064;28;20064;-86
2022/11/18 01:06:36;;;;;;;8.73;6.03;;;;;;;;;;5054844;28;20049;-85
2022/11/18 01:09:03;;;;;;;8.52;5.60;;;;;;;;;;5053520;28;20084;-86
2022/11/18 01:14:16;;;;;;;5.97;5.00;;;;;;;;;;5054152;28;20404;-87
2022/11/18 01:16:49;;;;;;;9.07;5.10;;;;;;;;;;5053924;28;20135;-88
2022/11/18 01:19:17;;;;;;;7.18;5.35;;;;;;;;;;5052098;28;20057;-87
2022/11/18 01:21:46;;;;;;;6.50;5.50;;;;;;;;;;5052014;28;20056;-87
2022/11/18 01:24:13;;;;;;;7.28;6.15;;;;;;;;;;5051755;28;20049;-85
2022/11/18 01:26:40;;;;;;;11.88;6.40;;;;;;;;;;5052930;28;20049;-88
2022/11/18 01:29:08;;;;;;;6.05;5.10;;;;;;;;;;5052813;28;20057;-88
2022/11/18 01:31:35;;;;;;;8.38;6.60;;;;;;;;;;5051961;28;20505;-88
2022/11/18 01:34:21;;;;;;;5.03;4.50;;;;;;;;;;5053047;28;20135;-88
2022/11/18 01:36:52;;;;;;;5.65;4.35;;;;;;;;;;5053266;28;20127;-88
2022/11/18 01:39:19;;;;;;;7.63;4.97;;;;;;;;;;5055488;28;20060;-88
2022/11/18 01:41:46;;;;;;;5.28;4.30;;;;;;;;;;5055920;28;20059;-89
2022/11/18 01:44:32;;;;;;;5.40;4.90;;;;;;;;;;5051681;28;20056;-86
2022/11/18 01:46:59;;;;;;;7.97;5.30;;;;;;;;;;5052621;28;20049;-87
2022/11/18 01:49:27;;;;;;;9.25;5.53;;;;;;;;;;5051700;28;20055;-88
2022/11/18 01:51:56;;;;;;;6.75;5.45;;;;;;;;;;5056004;28;20055;-88
2022/11/18 01:54:25;;;;;;;11.05;7.20;;;;;;;;;;5054572;28;20051;-88
2022/11/18 01:56:55;;;;;;;7.80;6.18;;;;;;;;;;5051737;28;20132;-88
2022/11/18 01:59:25;;;;;;;8.15;5.15;;;;;;;;;;5051707;28;20053;-88
2022/11/18 02:01:54;;;;;;;6.20;5.00;;;;;;;;;;5051671;28;20132;-88
2022/11/18 02:04:26;;;;;;;7.28;6.07;;;;;;;;;;5051485;28;20498;-88
2022/11/18 02:06:54;;;;;;;6.40;4.78;;;;;;;;;;5051889;28;20493;-87
2022/11/18 02:09:22;;;;;;;6.85;5.00;;;;;;;;;;5051614;28;20152;-88
2022/11/18 02:11:49;;;;;;;6.68;5.25;;;;;;;;;;5051731;28;20076;-88
2022/11/18 02:14:18;;;;;;;8.50;5.50;;;;;;;;;;5051505;28;20049;-88
2022/11/18 02:16:58;;;;;;;7.97;6.30;;;;;;;;;;5051259;28;20045;-88
2022/11/18 02:19:52;;;;;;;9.65;6.15;;;;;;;;;;5013517;28;1102339;-87
2022/11/18 02:22:38;;;;;;;13.35;7.15;;;;;;;;;;5020621;28;20071;-88
2022/11/18 02:25:11;;;;;;;11.50;7.22;;;;;;;;;;5051723;28;20052;-88
2022/11/18 02:27:57;;;;;;;7.68;6.22;;;;;;;;;;5031217;28;20056;-88
2022/11/18 02:30:25;;;;;;;8.75;6.80;;;;;;;;;;5031951;28;20045;-88
2022/11/18 02:32:57;;;;;;;18.02;8.80;;;;;;;;;;5031631;28;20049;-88
2022/11/18 02:35:39;;;;;;;10.20;7.50;;;;;;;;;;5032343;28;20049;-88
2022/11/18 02:38:12;;;;;;;10.73;8.10;;;;;;;;;;5031659;28;20053;-88
2022/11/18 02:40:41;;;;;;;13.00;9.15;;;;;;;;;;5031774;28;20045;-88
2022/11/18 02:43:28;;;;;;;8.68;7.78;;;;;;;;;;5031898;28;20475;-85
2022/11/18 02:45:59;;;;;;;10.25;7.50;;;;;;;;;;5015265;28;20151;-85
2022/11/18 02:48:27;;;;;;;10.68;7.70;;;;;;;;;;5031973;28;20060;-85
2022/11/18 02:50:54;;;;;;;10.73;7.78;;;;;;;;;;5031916;28;20057;-85
2022/11/18 02:53:22;;;;;;;8.65;7.18;;;;;;;;;;5033137;28;20053;-87
2022/11/18 02:55:50;;;;;;;11.40;7.50;;;;;;;;;;5031593;28;20045;-88
2022/11/18 02:58:19;;;;;;;11.23;6.63;;;;;;;;;;5031737;28;20060;-87
2022/11/18 03:00:56;;;;;;;7.00;6.15;;;;;;;;;;5031520;28;20049;-87
2022/11/18 03:03:24;;;;;;;12.40;6.35;;;;;;;;;;5032412;28;20405;-87
2022/11/18 03:06:10;;;;;;;14.25;6.78;;;;;;;;;;5035077;28;20057;-87
2022/11/18 03:08:40;;;;;;;13.43;7.20;;;;;;;;;;5041658;28;20051;-87
2022/11/18 03:11:14;;;;;;;9.30;6.47;;;;;;;;;;5035232;28;20057;-87
2022/11/18 03:14:00;;;;;;;7.80;6.32;;;;;;;;;;5034952;28;20064;-87
2022/11/18 03:16:31;;;;;;;10.00;6.38;;;;;;;;;;5035059;28;20494;-87
2022/11/18 03:19:07;;;;;;;9.32;5.75;;;;;;;;;;5034780;28;20049;-87
2022/11/18 03:21:37;;;;;;;9.25;5.80;;;;;;;;;;5034759;28;20402;-87
2022/11/18 03:24:11;;;;;;;8.93;5.63;;;;;;;;;;5034473;28;20058;-87
2022/11/18 03:26:39;;;;;;;7.55;5.30;;;;;;;;;;5036223;28;20053;-86
2022/11/18 03:29:16;;;;;;;7.82;5.05;;;;;;;;;;5034798;28;20049;-87
2022/11/18 03:31:49;;;;;;;12.57;6.07;;;;;;;;;;5040410;28;20049;-87
2022/11/18 03:34:20;;;;;;;8.52;6.35;;;;;;;;;;5052978;28;20076;-87
2022/11/18 03:36:50;;;;;;;14.15;6.90;;;;;;;;;;5040227;28;20041;-87
2022/11/18 03:39:20;;;;;;;16.42;7.68;;;;;;;;;;5034905;28;20490;-87
2022/11/18 03:41:51;;;;;;;20.50;8.63;;;;;;;;;;5034547;28;20071;-87
2022/11/18 03:44:20;;;;;;;24.50;11.20;;;;;;;;;;5035507;28;20057;-87
2022/11/18 03:46:52;;;;;;;36.20;13.93;;;;;;;;;;5034416;28;20055;-85
2022/11/18 03:49:26;;;;;;;26.55;11.57;;;;;;;;;;5034283;28;20490;-85
2022/11/18 03:52:05;;;;;;;32.22;13.18;;;;;;;;;;5034796;28;20056;-85
2022/11/18 03:54:33;;;;;;;26.15;12.48;;;;;;;;;;5034127;28;20051;-85
2022/11/18 03:57:08;;;;;;;63.00;16.35;;;;;;;;;;5034339;28;20053;-84
2022/11/18 03:59:38;;;;;;;50.45;15.40;;;;;;;;;;5034134;28;20056;-88
2022/11/18 04:02:05;;;;;;;27.40;12.45;;;;;;;;;;5034529;28;20063;-85
2022/11/18 04:04:32;;;;;;;30.75;13.75;;;;;;;;;;5034870;28;20061;-87
2022/11/18 04:07:17;;;;;;;24.67;11.90;;;;;;;;;;5035139;28;20055;-86
2022/11/18 04:09:52;;;;;;;23.35;11.95;;;;;;;;;;5034069;28;20104;-87
2022/11/18 04:12:20;;;;;;;26.42;12.68;;;;;;;;;;5034455;28;20056;-87
2022/11/18 04:14:51;;;;;;;19.52;11.13;;;;;;;;;;5033967;28;20053;-86
2022/11/18 04:17:23;;;;;;;24.50;12.10;;;;;;;;;;5034035;28;20133;-87
2022/11/18 04:19:50;;;;;;;60.30;14.57;;;;;;;;;;5015133;28;20065;-87
2022/11/18 04:22:18;;;;;;;24.67;11.10;;;;;;;;;;5031360;28;20056;-87
2022/11/18 04:24:45;;;;;;;54.45;15.18;;;;;;;;;;5039439;28;20065;-87
2022/11/18 04:27:13;;;;;;;20.75;10.90;;;;;;;;;;5015196;28;20544;-87
2022/11/18 04:29:40;;;;;;;21.30;10.60;;;;;;;;;;5014949;28;20049;-87
2022/11/18 04:32:07;;;;;;;17.38;10.45;;;;;;;;;;5030164;28;20050;-87
2022/11/18 04:34:35;;;;;;;18.17;10.50;;;;;;;;;;5028744;28;20058;-87
2022/11/18 04:37:02;;;;;;;17.45;10.52;;;;;;;;;;5015018;28;20057;-87
2022/11/18 04:39:29;;;;;;;20.38;10.30;;;;;;;;;;5030442;28;20053;-87
2022/11/18 04:41:56;;;;;;;19.30;9.77;;;;;;;;;;5030344;28;20049;-87
2022/11/18 04:44:28;;;;;;;19.10;10.85;;;;;;;;;;5030012;28;20045;-87
2022/11/18 04:46:56;;;;;;;25.90;12.75;;;;;;;;;;5014642;28;20104;-87
2022/11/18 04:49:24;;;;;;;23.23;12.20;;;;;;;;;;5030352;28;20409;-85
2022/11/18 04:51:52;;;;;;;26.35;13.25;;;;;;;;;;5030206;28;20052;-87
2022/11/18 04:54:19;;;;;;;22.15;11.88;;;;;;;;;;5029999;28;20049;-87
2022/11/18 04:56:47;;;;;;;22.23;11.85;;;;;;;;;;5030347;28;20060;-87
2022/11/18 04:59:17;;;;;;;25.08;13.30;;;;;;;;;;5029981;28;20056;-86
2022/11/18 05:01:45;;;;;;;33.00;13.80;;;;;;;;;;5029635;28;20053;-87
2022/11/18 05:04:13;;;;;;;33.05;14.85;;;;;;;;;;5029321;28;20049;-86
2022/11/18 05:06:40;;;;;;;37.08;16.00;;;;;;;;;;5029987;28;20045;-86
2022/11/18 05:09:08;;;;;;;33.88;16.27;;;;;;;;;;5030003;28;20058;-87
2022/11/18 05:14:21;;;;;;;80.35;35.97;;;;;;;;;;5014520;28;20054;-87
2022/11/18 05:16:48;;;;;;;63.55;32.67;;;;;;;;;;5014464;28;20053;-87
2022/11/18 05:19:15;;;;;;;105.55;39.40;;;;;;;;;;5013977;28;20065;-87
2022/11/18 05:21:43;;;;;;;93.10;34.03;;;;;;;;;;5013371;28;20062;-87
2022/11/18 05:24:10;;;;;;;86.15;28.10;;;;;;;;;;5013331;28;20050;-87
2022/11/18 05:26:37;;;;;;;31.88;14.90;;;;;;;;;;5012687;28;20076;-86
2022/11/18 05:29:05;;;;;;;27.40;13.10;;;;;;;;;;5013158;28;20085;-87
2022/11/18 05:31:32;;;;;;;30.20;13.45;;;;;;;;;;5013070;28;20061;-87
2022/11/18 05:34:00;;;;;;;25.02;12.27;;;;;;;;;;5014252;28;20057;-87
2022/11/18 05:36:27;;;;;;;22.27;11.73;;;;;;;;;;5012864;28;20076;-86
2022/11/18 05:38:57;;;;;;;24.50;11.82;;;;;;;;;;5017428;28;20056;-88
2022/11/18 05:44:10;;;;;;;30.80;11.70;;;;;;;;;;5014181;28;20050;-87
2022/11/18 05:46:38;;;;;;;31.20;12.38;;;;;;;;;;5013031;28;20120;-87
2022/11/18 05:49:06;;;;;;;23.20;11.48;;;;;;;;;;5012907;28;20137;-87
2022/11/18 05:51:34;;;;;;;47.05;13.68;;;;;;;;;;5012809;28;20510;-87
2022/11/18 05:54:06;;;;;;;25.85;11.93;;;;;;;;;;5013337;28;20090;-87
2022/11/18 05:56:38;;;;;;;32.13;12.10;;;;;;;;;;5013753;28;20060;-87
2022/11/18 05:59:06;;;;;;;23.58;10.98;;;;;;;;;;5012456;28;20062;-87
2022/11/18 06:01:38;;;;;;;35.67;13.07;;;;;;;;;;5012335;28;20054;-86
2022/11/18 06:04:09;;;;;;;72.72;14.63;;;;;;;;;;5013444;28;20042;-87
2022/11/18 06:06:36;;;;;;;68.90;15.07;;;;;;;;;;5012338;28;20079;-87
2022/11/18 06:09:05;;;;;;;56.22;14.20;;;;;;;;;;5012977;28;20056;-87
2022/11/18 06:11:36;;;;;;;39.95;12.52;;;;;;;;;;5018693;28;20053;-87
2022/11/18 06:14:05;;;;;;;48.38;12.02;;;;;;;;;;5025618;28;20134;-87
2022/11/18 06:16:34;;;;;;;33.50;12.18;;;;;;;;;;5013543;28;20494;-87
2022/11/18 06:19:07;;;;;;;39.70;12.63;;;;;;;;;;5011948;28;20501;-87
2022/11/18 06:21:34;;;;;;;42.33;13.43;;;;;;;;;;5012375;28;20058;-88
2022/11/18 06:24:01;;;;;;;33.03;12.60;;;;;;;;;;5012243;28;20080;-87
2022/11/18 06:26:29;;;;;;;31.55;11.32;;;;;;;;;;5011881;28;20406;-87
2022/11/18 06:28:57;;;;;;;41.33;13.00;;;;;;;;;;5012309;28;20050;-89
2022/11/18 06:31:24;;;;;;;53.40;13.55;;;;;;;;;;5012294;28;20440;-87
2022/11/18 06:33:51;;;;;;;69.25;15.82;;;;;;;;;;5012257;28;20508;-88
2022/11/18 06:36:18;;;;;;;84.35;17.33;;;;;;;;;;5012018;28;20494;-86
2022/11/18 06:38:45;;;;;;;68.90;18.27;;;;;;;;;;5015466;28;20054;-85
2022/11/18 06:41:13;;;;;;;50.95;16.80;;;;;;;;;;5015878;28;20053;-86
2022/11/18 06:43:40;;;;;;;65.72;18.25;;;;;;;;;;5016080;28;20056;-86
2022/11/18 06:48:57;;;;;;;58.33;18.02;;;;;;;;;;5017228;28;20406;-87
2022/11/18 06:51:25;;;;;;;71.85;17.95;;;;;;;;;;5015970;28;20077;-88
2022/11/18 06:53:52;;;;;;;99.63;19.30;;;;;;;;;;5017681;28;20520;-87
2022/11/18 06:56:23;;;;;;;83.05;18.40;;;;;;;;;;5018632;28;20490;-87
2022/11/18 06:58:57;;;;;;;66.93;18.38;;;;;;;;;;5015929;28;20056;-86
2022/11/18 07:01:25;;;;;;;69.95;18.40;;;;;;;;;;5015929;28;20054;-87
2022/11/18 07:03:53;;;;;;;82.32;19.98;;;;;;;;;;5015645;28;20057;-88
2022/11/18 07:06:21;;;;;;;93.72;23.77;;;;;;;;;;5015396;28;20490;-87
2022/11/18 07:08:49;;;;;;;40.92;16.92;;;;;;;;;;5015495;28;20045;-85
2022/11/18 07:11:17;;;;;;;80.38;19.35;;;;;;;;;;5016553;28;20505;-85
2022/11/18 07:13:45;;;;;;;73.57;18.98;;;;;;;;;;5016717;28;20053;-87
2022/11/18 07:16:13;;;;;;;63.60;18.27;;;;;;;;;;5015607;28;20410;-88
2022/11/18 07:18:41;;;;;;;48.58;15.55;;;;;;;;;;5015241;28;20060;-88
2022/11/18 07:21:10;;;;;;;50.15;14.93;;;;;;;;;;5015458;28;20060;-88
2022/11/18 07:23:37;;;;;;;52.13;23.92;;;;;;;;;;5015405;28;20498;-88
2022/11/18 07:26:05;;;;;;;35.42;16.98;;;;;;;;;;5015175;28;20075;-85
2022/11/18 07:28:32;;;;;;;52.83;16.42;;;;;;;;;;5015288;28;20050;-85
2022/11/18 07:31:04;;;;;;;52.75;19.83;;;;;;;;;;5015176;28;20049;-88
2022/11/18 07:33:32;;;;;;;41.22;15.40;;;;;;;;;;5015029;28;20056;-89
2022/11/18 07:36:03;;;;;;;61.25;19.73;;;;;;;;;;5015146;28;20072;-88
2022/11/18 07:38:30;;;;;;;76.32;20.80;;;;;;;;;;5016730;28;20054;-87
2022/11/18 07:41:08;;;;;;;67.03;21.63;;;;;;;;;;5015124;28;20066;-88
2022/11/18 07:43:36;;;;;;;80.43;23.95;;;;;;;;;;5015040;28;20054;-88
2022/11/18 07:46:12;;;;;;;99.95;25.90;;;;;;;;;;5014429;28;20050;-86
2022/11/18 07:48:40;;;;;;;63.50;23.40;;;;;;;;;;5013599;28;20046;-87
2022/11/18 07:51:08;;;;;;;81.82;26.05;;;;;;;;;;5015702;28;20072;-88
2022/11/18 07:53:35;;;;;;;100.47;27.88;;;;;;;;;;5014735;28;20061;-89
2022/11/18 07:56:03;;;;;;;84.43;24.85;;;;;;;;;;5014563;28;20525;-87
2022/11/18 07:58:31;;;;;;;106.05;39.05;;;;;;;;;;5014906;28;20053;-88
2022/11/18 08:00:58;;;;;;;171.20;56.97;;;;;;;;;;5014778;28;20058;-89
2022/11/18 08:03:28;;;;;;;96.25;31.10;;;;;;;;;;5014601;28;20105;-87
2022/11/18 08:05:59;;;;;;;122.85;50.25;;;;;;;;;;5014264;28;20049;-88
2022/11/18 08:08:27;;;;;;;89.57;47.70;;;;;;;;;;5015467;28;20410;-87
2022/11/18 08:10:58;;;;;;;116.75;31.77;;;;;;;;;;5025837;28;20064;-87
2022/11/18 08:13:26;;;;;;;142.15;39.83;;;;;;;;;;5015142;28;20056;-87
2022/11/18 08:15:53;;;;;;;65.68;23.17;;;;;;;;;;5013870;28;20049;-87
2022/11/18 08:18:20;;;;;;;120.15;30.13;;;;;;;;;;5013919;28;20052;-88
2022/11/18 08:20:48;;;;;;;154.63;74.28;;;;;;;;;;5013740;28;20089;-88
2022/11/18 08:23:16;;;;;;;140.90;47.63;;;;;;;;;;5015032;28;20046;-88
2022/11/18 08:25:44;;;;;;;157.60;39.08;;;;;;;;;;5013571;28;20057;-88
2022/11/18 08:28:12;;;;;;;70.60;27.63;;;;;;;;;;5015324;28;20049;-88
2022/11/18 08:30:39;;;;;;;95.78;32.13;;;;;;;;;;5014091;28;20057;-87
2022/11/18 08:33:07;;;;;;;122.32;31.25;;;;;;;;;;5014175;28;20132;-88
2022/11/18 08:35:36;;;;;;;81.65;29.27;;;;;;;;;;5013950;28;20053;-88
2022/11/18 08:38:04;;;;;;;78.95;26.08;;;;;;;;;;5013808;28;20065;-88
2022/11/18 08:40:31;;;;;;;144.05;31.65;;;;;;;;;;5013540;28;20049;-87
2022/11/18 08:42:58;;;;;;;98.47;32.45;;;;;;;;;;5014111;28;20046;-88
2022/11/18 08:45:26;;;;;;;111.72;41.33;;;;;;;;;;5013565;28;20056;-88
2022/11/18 08:47:53;;;;;;;69.93;26.40;;;;;;;;;;5013915;28;20046;-88
2022/11/18 08:50:20;;;;;;;189.88;79.80;;;;;;;;;;5013780;28;20136;-88
2022/11/18 08:52:48;;;;;;;569.50;407.55;;;;;;;;;;5013887;28;20053;-86
2022/11/18 08:55:15;;;;;;;173.48;67.07;;;;;;;;;;5014643;28;20049;-87
2022/11/18 08:57:42;;;;;;;271.77;134.77;;;;;;;;;;5019806;28;20050;-88
2022/11/18 09:00:10;;;;;;;102.80;51.42;;;;;;;;;;5025158;28;20064;-89
2022/11/18 09:02:37;;;;;;;103.32;29.50;;;;;;;;;;5024058;28;20053;-87
2022/11/18 09:05:04;;;;;;;57.63;24.13;;;;;;;;;;5018294;28;20482;-88
2022/11/18 09:07:32;;;;;;;174.13;90.85;;;;;;;;;;5013518;28;20088;-88
2022/11/18 09:09:59;;;;;;;73.15;30.38;;;;;;;;;;5013051;28;20050;-87
2022/11/18 09:12:26;;;;;;;80.80;29.40;;;;;;;;;;5013475;28;20131;-87
2022/11/18 09:14:53;;;;;;;90.63;35.38;;;;;;;;;;5013821;28;20054;-88
2022/11/18 09:17:41;;;;;;;82.90;29.63;;;;;;;;;;5017283;28;20050;-88
2022/11/18 09:20:08;;;;;;;102.93;47.00;;;;;;;;;;5034420;28;20046;-88
2022/11/18 09:22:36;;;;;;;63.58;24.95;;;;;;;;;;5033181;28;20052;-89
2022/11/18 09:25:04;;;;;;;53.55;25.95;;;;;;;;;;5039503;28;20073;-88
2022/11/18 09:27:31;;;;;;;55.97;23.67;;;;;;;;;;5033362;28;20049;-88
2022/11/18 09:29:58;;;;;;;62.13;25.05;;;;;;;;;;5033752;28;20053;-88
2022/11/18 09:32:26;;;;;;;64.22;32.92;;;;;;;;;;5033924;28;20140;-86
2022/11/18 09:34:53;;;;;;;61.72;32.90;;;;;;;;;;5032483;28;20052;-88
2022/11/18 09:37:21;;;;;;;41.45;23.95;;;;;;;;;;5032838;28;20059;-85
2022/11/18 09:39:48;;;;;;;40.33;21.13;;;;;;;;;;5032651;28;20056;-87
2022/11/18 09:42:15;;;;;;;69.10;41.90;;;;;;;;;;5032353;28;20056;-88
2022/11/18 09:45:01;;;;;;;46.53;21.17;;;;;;;;;;5032669;28;20509;-88
2022/11/18 09:47:33;;;;;;;68.90;34.00;;;;;;;;;;5032700;28;20084;-88
2022/11/18 09:50:02;;;;;;;51.47;30.10;;;;;;;;;;5032748;28;20045;-88
2022/11/18 09:53:13;;;;;;;43.90;22.98;;;;;;;;;;5032561;28;20493;-88
2022/11/18 09:55:40;;;;;;;31.80;18.25;;;;;;;;;;5018822;28;20048;-87
2022/11/18 09:58:26;;;;;;;46.65;23.17;;;;;;;;;;5032496;28;20057;-86
2022/11/18 10:00:53;;;;;;;36.67;21.35;;;;;;;;;;5032269;28;20053;-86
2022/11/18 10:03:29;;;;;;;32.58;16.63;;;;;;;;;;5032425;28;20057;-89
2022/11/18 10:05:56;;;;;;;41.65;23.48;;;;;;;;;;5032220;28;20053;-88
2022/11/18 10:08:36;;;;;;;33.15;18.85;;;;;;;;;;5032299;28;20060;-89
2022/11/18 10:11:09;;;;;;;36.13;22.77;;;;;;;;;;5032819;28;20111;-88
2022/11/18 10:13:43;;;;;;;59.58;37.42;;;;;;;;;;5038252;28;20049;-88
2022/11/18 10:16:30;;;;;;;31.17;17.70;;;;;;;;;;5039072;28;20080;-89
2022/11/18 10:18:57;;;;;;;35.85;21.42;;;;;;;;;;5022223;28;20060;-88
2022/11/18 10:21:46;;;;;;;103.32;50.90;;;;;;;;;;5039175;28;20128;-89
2022/11/18 10:24:13;;;;;;;46.55;21.77;;;;;;;;;;5038848;28;20509;-88
2022/11/18 10:26:41;;;;;;;48.67;25.42;;;;;;;;;;5038925;28;20079;-90
2022/11/18 10:29:09;;;;;;;50.63;24.85;;;;;;;;;;5038950;28;20087;-88
2022/11/18 10:31:38;;;;;;;50.58;25.13;;;;;;;;;;5038971;28;20057;-88
2022/11/18 10:34:05;;;;;;;61.78;28.02;;;;;;;;;;5037629;28;20050;-88
2022/11/18 10:36:33;;;;;;;63.53;27.25;;;;;;;;;;5038998;28;20057;-89
2022/11/18 10:39:14;;;;;;;59.25;23.60;;;;;;;;;;5039414;28;20049;-88
2022/11/18 10:41:49;;;;;;;51.60;26.98;;;;;;;;;;5038895;28;20049;-87
2022/11/18 10:44:45;;;;;;;51.70;23.38;;;;;;;;;;5038661;28;20050;-88
2022/11/18 10:47:22;;;;;;;50.33;23.15;;;;;;;;;;5020659;28;20491;-85
2022/11/18 10:49:51;;;;;;;56.17;25.35;;;;;;;;;;5038708;28;20053;-87
2022/11/18 10:52:18;;;;;;;43.53;23.17;;;;;;;;;;5038371;28;20048;-87
2022/11/18 10:54:45;;;;;;;50.20;23.70;;;;;;;;;;5038394;28;20057;-86
2022/11/18 10:57:15;;;;;;;40.15;19.30;;;;;;;;;;5038295;28;20045;-87
2022/11/18 10:59:51;;;;;;;62.72;26.30;;;;;;;;;;5038163;28;20060;-87
2022/11/18 11:02:38;;;;;;;36.17;18.38;;;;;;;;;;5038799;28;20049;-87
2022/11/18 11:05:22;;;;;;;45.40;20.52;;;;;;;;;;5022470;28;20136;-88
2022/11/18 11:08:03;;;;;;;25.63;15.70;;;;;;;;;;5038297;28;20053;-89
2022/11/18 11:10:58;;;;;;;35.50;19.20;;;;;;;;;;5038267;28;20437;-87
2022/11/18 11:13:27;;;;;;;23.10;14.38;;;;;;;;;;5038363;28;20063;-88
2022/11/18 11:15:56;;;;;;;26.08;15.90;;;;;;;;;;5039293;28;20057;-87
2022/11/18 11:18:41;;;;;;;27.95;18.13;;;;;;;;;;5037809;28;20053;-88
2022/11/18 11:21:12;;;;;;;25.35;15.93;;;;;;;;;;5038215;28;20501;-87
2022/11/18 11:23:40;;;;;;;71.93;47.47;;;;;;;;;;5037634;28;20137;-88
2022/11/18 11:26:22;;;;;;;84.07;49.78;;;;;;;;;;5034779;28;20409;-88
2022/11/18 11:29:09;;;;;;;24.20;13.35;;;;;;;;;;5035704;28;20053;-87
2022/11/18 11:31:37;;;;;;;32.00;21.17;;;;;;;;;;5034785;28;20059;-87
2022/11/18 11:34:13;;;;;;;22.30;13.10;;;;;;;;;;5035125;28;20053;-88
2022/11/18 11:36:47;;;;;;;24.63;18.05;;;;;;;;;;5034926;28;20050;-87
2022/11/18 11:39:33;;;;;;;17.55;10.38;;;;;;;;;;5035687;28;20053;-84
2022/11/18 11:42:11;;;;;;;11.88;8.00;;;;;;;;;;5034604;28;20054;-88
2022/11/18 11:44:41;;;;;;;9.73;7.97;;;;;;;;;;5035695;28;20083;-88
2022/11/18 11:50:06;;;;;;;16.00;11.38;;;;;;;;;;5036235;28;20482;-86
2022/11/18 11:52:41;;;;;;;14.30;10.20;;;;;;;;;;5035894;28;20053;-88
2022/11/18 11:55:21;;;;;;;20.52;11.40;;;;;;;;;;5036080;28;20053;-88
2022/11/18 11:57:57;;;;;;;42.05;23.30;;;;;;;;;;5036328;28;20055;-88
2022/11/18 12:00:27;;;;;;;72.07;35.78;;;;;;;;;;5046127;28;20489;-88
2022/11/18 12:03:02;;;;;;;91.15;43.88;;;;;;;;;;5040508;28;20489;-88
2022/11/18 12:05:38;;;;;;;27.55;15.95;;;;;;;;;;5034855;28;20136;-88
2022/11/18 12:08:14;;;;;;;21.98;14.05;;;;;;;;;;5034537;28;20054;-88
2022/11/18 12:10:44;;;;;;;31.60;21.73;;;;;;;;;;5033819;28;20049;-88
2022/11/18 12:13:18;;;;;;;18.77;11.80;;;;;;;;;;5034414;28;20141;-89
2022/11/18 12:15:54;;;;;;;17.30;11.15;;;;;;;;;;5035530;28;20509;-88
2022/11/18 12:18:26;;;;;;;26.73;16.08;;;;;;;;;;5033835;28;20403;-88
2022/11/18 12:20:54;;;;;;;22.38;16.63;;;;;;;;;;5034268;28;20057;-88
2022/11/18 12:23:23;;;;;;;11.57;7.97;;;;;;;;;;5033639;28;20120;-88
2022/11/18 12:25:52;;;;;;;9.48;7.93;;;;;;;;;;5033745;28;20053;-85
2022/11/18 12:28:39;;;;;;;10.40;7.70;;;;;;;;;;5033855;28;20049;-85
2022/11/18 12:31:22;;;;;;;7.38;6.40;;;;;;;;;;5033983;28;20050;-87
2022/11/18 12:33:53;;;;;;;10.32;7.47;;;;;;;;;;5033786;28;20413;-86
2022/11/18 12:36:28;;;;;;;13.23;10.32;;;;;;;;;;5033707;28;20551;-86
2022/11/18 12:38:56;;;;;;;13.88;10.32;;;;;;;;;;5033510;28;20048;-86
2022/11/18 12:44:28;;;;;;;16.95;11.23;;;;;;;;;;5034398;28;20072;-86
2022/11/18 12:46:59;;;;;;;16.63;11.38;;;;;;;;;;5032797;28;20049;-86
2022/11/18 12:49:26;;;;;;;16.83;10.50;;;;;;;;;;5033375;28;20132;-86
2022/11/18 12:51:57;;;;;;;19.38;13.88;;;;;;;;;;5033301;28;20049;-86
2022/11/18 12:54:28;;;;;;;19.23;13.20;;;;;;;;;;5033158;28;20053;-87
2022/11/18 12:56:57;;;;;;;21.00;13.80;;;;;;;;;;5033378;28;20059;-86
2022/11/18 12:59:35;;;;;;;20.30;12.35;;;;;;;;;;5033054;28;20421;-85
2022/11/18 13:02:15;;;;;;;15.07;10.95;;;;;;;;;;5032933;28;20057;-87
2022/11/18 13:04:42;;;;;;;16.17;11.15;;;;;;;;;;5034295;28;20055;-84
2022/11/18 13:10:11;;;;;;;19.55;12.68;;;;;;;;;;5034485;28;20049;-88
2022/11/18 13:12:39;;;;;;;17.83;12.38;;;;;;;;;;5033082;28;20056;-86
2022/11/18 13:18:17;;;;;;;21.60;14.07;;;;;;;;;;5033573;28;20053;-84
2022/11/18 13:20:54;;;;;;;23.98;15.40;;;;;;;;;;5032580;28;20504;-87
2022/11/18 13:26:32;;;;;;;27.75;16.25;;;;;;;;;;5033307;28;20049;-86
2022/11/18 13:29:25;;;;;;;26.13;17.23;;;;;;;;;;5032925;28;20085;-88
2022/11/18 13:31:55;;;;;;;26.73;16.83;;;;;;;;;;5032793;28;20367;-86
2022/11/18 13:34:27;;;;;;;27.90;17.05;;;;;;;;;;5033791;28;20053;-86
2022/11/18 13:36:55;;;;;;;24.42;16.45;;;;;;;;;;5032789;28;20042;-87
2022/11/18 13:39:30;;;;;;;31.65;18.48;;;;;;;;;;5032212;28;20053;-85
2022/11/18 13:42:04;;;;;;;28.27;16.75;;;;;;;;;;5033461;28;20470;-86
2022/11/18 13:44:36;;;;;;;27.38;17.13;;;;;;;;;;5033550;28;20053;-87
2022/11/18 13:47:06;;;;;;;28.92;17.13;;;;;;;;;;5032143;28;20091;-87
2022/11/18 13:49:53;;;;;;;26.90;16.73;;;;;;;;;;5033979;28;20057;-86
2022/11/18 13:52:24;;;;;;;25.02;16.90;;;;;;;;;;5012705;28;20064;-87
2022/11/18 13:54:53;;;;;;;26.30;16.20;;;;;;;;;;5027365;28;20064;-87
2022/11/18 13:57:21;;;;;;;30.45;17.60;;;;;;;;;;5032639;28;20057;-85
2022/11/18 13:59:50;;;;;;;27.05;16.17;;;;;;;;;;5032155;28;20060;-86
2022/11/18 14:02:17;;;;;;;26.20;16.08;;;;;;;;;;5032508;28;20045;-86
2022/11/18 14:04:56;;;;;;;25.38;16.05;;;;;;;;;;5032181;28;20485;-87
2022/11/18 14:07:29;;;;;;;26.00;17.48;;;;;;;;;;5032411;28;20136;-87
2022/11/18 14:09:59;;;;;;;20.52;14.60;;;;;;;;;;5032590;28;20053;-85
2022/11/18 14:12:28;;;;;;;22.33;15.48;;;;;;;;;;5033246;28;20049;-86
2022/11/18 14:15:14;;;;;;;22.02;14.90;;;;;;;;;;5032761;28;20049;-86
2022/11/18 14:17:55;;;;;;;25.38;15.43;;;;;;;;;;5032101;28;20572;-88
2022/11/18 14:20:23;;;;;;;24.23;16.38;;;;;;;;;;5037427;28;20170;-85
2022/11/18 14:22:55;;;;;;;23.20;15.48;;;;;;;;;;5038115;28;20403;-87
2022/11/18 14:25:25;;;;;;;22.75;14.18;;;;;;;;;;5032410;28;20056;-88
2022/11/18 14:27:54;;;;;;;17.65;12.35;;;;;;;;;;5032293;28;20144;-88
2022/11/18 14:30:27;;;;;;;12.88;10.35;;;;;;;;;;5032250;28;20049;-86
2022/11/18 14:32:54;;;;;;;;;;;;;;;;;;5032771;28;20136;-86
2022/11/18 14:35:22;;;;;;;12.85;9.23;;;;;;;;;;5032343;28;19921;-86
2022/11/18 14:37:49;;;;;;;11.13;7.85;;;;;;;;;;5032199;28;20061;-86
2022/11/18 14:40:30;;;;;;;10.80;8.75;;;;;;;;;;5032145;28;20065;-86
2022/11/18 14:42:59;;;;;;;15.15;8.32;;;;;;;;;;5032013;28;20364;-86
2022/11/18 14:45:26;;;;;;;9.95;6.72;;;;;;;;;;5032240;28;20060;-86
2022/11/18 14:47:53;;;;;;;7.25;6.00;;;;;;;;;;5031853;28;20049;-87
2022/11/18 14:50:21;;;;;;;6.82;5.93;;;;;;;;;;5032225;28;20042;-87
2022/11/18 14:52:48;;;;;;;6.10;4.68;;;;;;;;;;5031725;28;20073;-86
2022/11/18 14:55:15;;;;;;;5.72;4.90;;;;;;;;;;5032148;28;20057;-88
2022/11/18 14:57:43;;;;;;;5.22;4.72;;;;;;;;;;5033029;28;20061;-87
2022/11/18 15:00:14;;;;;;;6.50;5.30;;;;;;;;;;5039740;28;20041;-87
2022/11/18 15:02:42;;;;;;;4.95;4.45;;;;;;;;;;5045512;28;20434;-86
2022/11/18 15:05:10;;;;;;;5.50;4.95;;;;;;;;;;5037197;28;20049;-87
2022/11/18 15:07:37;;;;;;;9.80;5.30;;;;;;;;;;5035111;28;20057;-87
2022/11/18 15:10:04;;;;;;;6.30;5.68;;;;;;;;;;5035287;28;20053;-86
2022/11/18 15:12:31;;;;;;;6.20;5.28;;;;;;;;;;5035137;28;20391;-87
2022/11/18 15:14:58;;;;;;;6.13;5.50;;;;;;;;;;5035456;28;20053;-86